createdAt,value
2018-04-01T00:01:48.893Z,8.70
2018-04-01T00:04:16.960Z,7.53
2018-04-01T00:06:44.646Z,7.23
2018-04-01T00:09:12.689Z,8.97
2018-04-01T00:11:40.438Z,7.73
2018-04-01T00:14:08.754Z,6.17
2018-04-01T00:16:37.155Z,6.30
2018-04-01T00:19:05.691Z,6.63
2018-04-01T00:21:34.333Z,6.77
2018-04-01T00:24:02.718Z,5.63
2018-04-01T00:26:30.262Z,5.60
2018-04-01T00:28:58.071Z,5.10
2018-04-01T00:31:25.623Z,5.33
2018-04-01T00:33:53.944Z,4.60
2018-04-01T00:36:21.529Z,5.40
2018-04-01T00:38:49.956Z,3.10
2018-04-01T00:41:17.950Z,5.03
2018-04-01T00:43:45.846Z,4.50
2018-04-01T00:46:13.887Z,3.83
2018-04-01T00:48:41.434Z,3.70
2018-04-01T00:51:09.800Z,3.23
2018-04-01T00:53:37.714Z,3.27
2018-04-01T00:56:05.658Z,3.23
2018-04-01T00:58:33.953Z,3.40
2018-04-01T01:01:01.755Z,3.23
2018-04-01T01:03:29.374Z,3.33
2018-04-01T01:05:56.936Z,2.33
2018-04-01T01:08:25.362Z,4.00
2018-04-01T01:10:52.959Z,3.93
2018-04-01T01:13:20.599Z,2.97
2018-04-01T01:15:48.282Z,2.67
2018-04-01T01:18:16.394Z,2.10
2018-04-01T01:20:44.364Z,3.13
2018-04-01T01:23:11.953Z,3.40
2018-04-01T01:25:39.601Z,2.87
2018-04-01T01:28:07.267Z,3.30
2018-04-01T01:30:35.154Z,4.00
2018-04-01T01:33:02.750Z,2.85
2018-04-01T01:35:30.345Z,3.12
2018-04-01T01:37:57.904Z,2.67
2018-04-01T01:40:25.508Z,3.35
2018-04-01T01:42:53.190Z,3.22
2018-04-01T01:45:20.969Z,2.70
2018-04-01T01:47:48.627Z,3.50
2018-04-01T01:50:17.093Z,2.70
2018-04-01T01:52:45.172Z,2.53
2018-04-01T01:55:13.934Z,2.60
2018-04-01T01:57:41.518Z,2.40
2018-04-01T02:00:09.110Z,2.78
2018-04-01T02:02:37.436Z,2.33
2018-04-01T02:05:05.081Z,2.28
2018-04-01T02:07:32.680Z,2.40
2018-04-01T02:10:01.088Z,2.65
2018-04-01T02:12:28.710Z,1.77
2018-04-01T02:14:56.267Z,2.03
2018-04-01T02:17:24.618Z,1.90
2018-04-01T02:19:52.234Z,1.90
2018-04-01T02:22:19.929Z,2.15
2018-04-01T02:24:47.857Z,2.03
2018-04-01T02:27:15.562Z,1.70
2018-04-01T02:29:43.456Z,1.47
2018-04-01T02:32:11.140Z,1.60
2018-04-01T02:34:38.743Z,1.60
2018-04-01T02:37:06.297Z,1.58
2018-04-01T02:39:33.896Z,1.20
2018-04-01T02:42:01.578Z,1.25
2018-04-01T02:44:29.171Z,1.20
2018-04-01T02:46:56.743Z,1.03
2018-04-01T02:49:24.639Z,1.60
2018-04-01T02:51:52.195Z,1.30
2018-04-01T02:54:20.575Z,1.17
2018-04-01T02:56:48.486Z,1.33
2018-04-01T02:59:16.499Z,1.05
2018-04-01T03:01:44.150Z,1.67
2018-04-01T03:04:12.801Z,1.17
2018-04-01T03:06:40.447Z,1.35
2018-04-01T03:09:08.117Z,1.70
2018-04-01T03:11:36.131Z,1.60
2018-04-01T03:14:04.670Z,1.20
2018-04-01T03:16:32.362Z,1.20
2018-04-01T03:18:59.950Z,1.80
2018-04-01T03:21:27.505Z,1.10
2018-04-01T03:23:55.827Z,1.48
2018-04-01T03:26:23.419Z,1.73
2018-04-01T03:28:51.072Z,1.77
2018-04-01T03:31:19.306Z,1.65
2018-04-01T03:33:47.081Z,2.87
2018-04-01T03:36:16.610Z,2.10
2018-04-01T03:38:44.413Z,1.50
2018-04-01T03:41:12.026Z,1.90
2018-04-01T03:43:39.634Z,1.70
2018-04-01T03:46:07.357Z,2.00
2018-04-01T03:48:35.146Z,1.58
2018-04-01T03:51:02.763Z,1.85
2018-04-01T03:53:30.347Z,1.52
2018-04-01T03:55:57.935Z,2.25
2018-04-01T03:58:25.487Z,1.87
2018-04-01T04:00:53.849Z,1.87
2018-04-01T04:03:21.589Z,1.40
2018-04-01T04:05:49.383Z,1.73
2018-04-01T04:08:17.622Z,1.90
2018-04-01T04:10:45.383Z,1.37
2018-04-01T04:13:13.051Z,1.30
2018-04-01T04:15:40.782Z,1.23
2018-04-01T04:18:08.375Z,1.73
2018-04-01T04:20:36.036Z,1.60
2018-04-01T04:23:03.651Z,1.50
2018-04-01T04:25:32.030Z,1.27
2018-04-01T04:27:59.602Z,1.40
2018-04-01T04:30:27.489Z,1.25
2018-04-01T04:32:55.047Z,1.40
2018-04-01T04:35:23.368Z,1.20
2018-04-01T04:37:51.370Z,1.92
2018-04-01T04:40:18.886Z,1.50
2018-04-01T04:42:46.744Z,1.10
2018-04-01T04:45:14.498Z,1.90
2018-04-01T04:47:42.181Z,1.40
2018-04-01T04:50:10.543Z,0.90
2018-04-01T04:52:38.259Z,1.83
2018-04-01T04:55:06.087Z,1.92
2018-04-01T04:57:34.117Z,3.17
2018-04-01T05:00:01.722Z,1.90
2018-04-01T05:02:30.078Z,2.67
2018-04-01T05:04:57.634Z,2.03
2018-04-01T05:07:25.482Z,1.48
2018-04-01T05:09:53.043Z,2.05
2018-04-01T05:12:20.814Z,1.92
2018-04-01T05:14:49.437Z,2.05
2018-04-01T05:17:18.058Z,1.90
2018-04-01T05:19:45.874Z,2.65
2018-04-01T05:22:13.654Z,3.20
2018-04-01T05:24:41.231Z,2.78
2018-04-01T05:27:08.809Z,2.90
2018-04-01T05:29:36.482Z,2.00
2018-04-01T05:32:04.176Z,1.73
2018-04-01T05:34:31.753Z,2.20
2018-04-01T05:36:59.342Z,2.35
2018-04-01T05:39:26.893Z,3.37
2018-04-01T05:41:55.255Z,3.10
2018-04-01T05:44:26.437Z,2.95
2018-04-01T05:46:53.994Z,3.23
2018-04-01T05:49:21.546Z,4.30
2018-04-01T05:51:49.999Z,3.95
2018-04-01T05:54:17.682Z,4.30
2018-04-01T05:56:45.718Z,3.87
2018-04-01T05:59:14.238Z,2.95
2018-04-01T06:01:41.882Z,3.03
2018-04-01T06:04:09.551Z,3.87
2018-04-01T06:06:37.251Z,2.75
2018-04-01T06:09:04.951Z,2.85
2018-04-01T06:11:32.523Z,3.10
2018-04-01T06:14:00.167Z,3.10
2018-04-01T06:16:28.490Z,3.53
2018-04-01T06:18:56.142Z,3.70
2018-04-01T06:21:23.740Z,4.15
2018-04-01T06:23:52.089Z,3.10
2018-04-01T06:26:19.806Z,3.10
2018-04-01T06:28:47.600Z,3.43
2018-04-01T06:31:15.387Z,3.25
2018-04-01T06:33:43.050Z,3.60
2018-04-01T06:36:11.442Z,2.90
2018-04-01T06:38:39.005Z,3.60
2018-04-01T06:41:06.642Z,3.37
2018-04-01T06:43:34.599Z,3.40
2018-04-01T06:46:02.190Z,3.10
2018-04-01T06:48:29.741Z,3.97
2018-04-01T06:50:57.442Z,3.00
2018-04-01T06:53:25.030Z,3.42
2018-04-01T06:55:52.586Z,3.08
2018-04-01T06:58:20.382Z,3.37
2018-04-01T07:00:48.154Z,2.28
2018-04-01T07:03:16.000Z,2.40
2018-04-01T07:05:43.763Z,2.62
2018-04-01T07:08:11.402Z,1.92
2018-04-01T07:10:39.068Z,3.58
2018-04-01T07:13:06.776Z,2.92
2018-04-01T07:15:35.328Z,2.60
2018-04-01T07:18:03.094Z,2.33
2018-04-01T07:20:30.781Z,2.05
2018-04-01T07:22:59.138Z,1.95
2018-04-01T07:25:26.728Z,2.25
2018-04-01T07:27:54.308Z,2.27
2018-04-01T07:30:21.898Z,1.37
2018-04-01T07:32:49.630Z,1.17
2018-04-01T07:35:17.450Z,1.87
2018-04-01T07:37:45.121Z,1.80
2018-04-01T07:40:13.882Z,1.60
2018-04-01T07:42:42.367Z,1.53
2018-04-01T07:45:09.939Z,1.80
2018-04-01T07:47:37.526Z,1.90
2018-04-01T07:50:05.126Z,1.70
2018-04-01T07:52:32.726Z,1.80
2018-04-01T07:55:00.323Z,1.60
2018-04-01T07:57:27.883Z,1.33
2018-04-01T07:59:55.474Z,2.15
2018-04-01T08:02:23.062Z,1.90
2018-04-01T08:04:50.678Z,1.40
2018-04-01T08:07:18.374Z,1.63
2018-04-01T08:09:46.163Z,1.55
2018-04-01T08:12:14.786Z,1.40
2018-04-01T08:14:42.479Z,1.40
2018-04-01T08:17:10.089Z,1.73
2018-04-01T08:19:37.662Z,1.37
2018-04-01T08:22:05.418Z,1.43
2018-04-01T08:24:33.020Z,1.30
2018-04-01T08:27:00.602Z,1.48
2018-04-01T08:29:28.958Z,1.10
2018-04-01T08:31:56.548Z,1.23
2018-04-01T08:34:24.102Z,1.27
2018-04-01T08:36:51.694Z,1.35
2018-04-01T08:39:19.353Z,1.40
2018-04-01T08:41:47.044Z,1.60
2018-04-01T08:44:14.666Z,1.30
2018-04-01T08:46:42.296Z,1.58
2018-04-01T08:51:44.779Z,1.25
2018-04-01T08:54:12.362Z,1.50
2018-04-01T08:56:39.971Z,1.37
2018-04-01T08:59:07.568Z,1.77
2018-04-01T09:01:35.462Z,1.07
2018-04-01T09:04:04.118Z,0.97
2018-04-01T09:06:32.614Z,0.90
2018-04-01T09:09:00.218Z,0.80
2018-04-01T09:11:27.781Z,1.23
2018-04-01T09:13:56.110Z,0.80
2018-04-01T09:16:23.702Z,1.10
2018-04-01T09:18:51.368Z,1.10
2018-04-01T09:21:19.015Z,0.60
2018-04-01T09:23:46.722Z,1.05
2018-04-01T09:26:14.540Z,1.00
2018-04-01T09:28:42.600Z,1.85
2018-04-01T09:31:10.926Z,0.80
2018-04-01T09:33:38.482Z,0.70
2018-04-01T09:36:06.132Z,1.15
2018-04-01T09:38:33.966Z,0.90
2018-04-01T09:41:02.295Z,1.00
2018-04-01T09:43:29.902Z,0.80
2018-04-01T09:45:57.495Z,0.80
2018-04-01T09:48:25.090Z,0.60
2018-04-01T09:50:52.646Z,0.80
2018-04-01T09:53:20.666Z,2.35
2018-04-01T09:55:48.406Z,0.60
2018-04-01T09:58:16.318Z,0.77
2018-04-01T10:00:57.011Z,0.60
2018-04-01T10:03:25.054Z,0.70
2018-04-01T10:05:54.120Z,1.02
2018-04-01T10:08:22.435Z,0.70
2018-04-01T10:10:50.724Z,0.70
2018-04-01T10:13:19.126Z,0.80
2018-04-01T10:15:49.195Z,1.12
2018-04-01T10:18:18.607Z,0.70
2018-04-01T10:20:47.206Z,0.80
2018-04-01T10:23:15.595Z,0.57
2018-04-01T10:25:43.904Z,0.70
2018-04-01T10:28:13.444Z,0.60
2018-04-01T10:30:41.768Z,0.80
2018-04-01T10:33:10.882Z,0.65
2018-04-01T10:35:39.165Z,0.70
2018-04-01T10:38:07.683Z,0.62
2018-04-01T10:40:35.991Z,0.80
2018-04-01T10:43:05.122Z,0.60
2018-04-01T10:45:33.480Z,0.77
2018-04-01T10:48:02.738Z,0.60
2018-04-01T10:50:31.062Z,0.70
2018-04-01T10:53:00.124Z,0.62
2018-04-01T10:55:27.949Z,0.70
2018-04-01T10:57:55.508Z,0.60
2018-04-01T11:00:24.144Z,0.90
2018-04-01T11:02:51.698Z,0.50
2018-04-01T11:05:20.070Z,0.80
2018-04-01T11:07:47.674Z,0.70
2018-04-01T11:10:15.386Z,0.70
2018-04-01T11:12:43.891Z,0.80
2018-04-01T11:15:11.553Z,0.70
2018-04-01T11:17:39.090Z,0.80
2018-04-01T11:20:07.014Z,0.75
2018-04-01T11:22:34.635Z,0.67
2018-04-01T11:25:02.213Z,0.90
2018-04-01T11:27:30.577Z,0.75
2018-04-01T11:29:58.227Z,0.80
2018-04-01T11:32:25.786Z,0.80
2018-04-01T11:34:54.147Z,1.08
2018-04-01T11:37:21.795Z,0.90
2018-04-01T11:39:49.482Z,0.80
2018-04-01T11:42:17.378Z,0.70
2018-04-01T11:44:45.139Z,0.90
2018-04-01T11:47:12.922Z,1.02
2018-04-01T11:49:40.535Z,1.08
2018-04-01T11:52:08.119Z,0.90
2018-04-01T11:54:35.763Z,1.02
2018-04-01T11:57:03.350Z,1.08
2018-04-01T11:59:30.915Z,1.70
2018-04-01T12:01:58.502Z,1.08
2018-04-01T12:04:26.102Z,1.35
2018-04-01T12:06:53.747Z,0.93
2018-04-01T12:09:21.326Z,1.05
2018-04-01T12:11:49.041Z,0.90
2018-04-01T12:14:16.696Z,1.10
2018-04-01T12:16:45.001Z,1.10
2018-04-01T12:19:12.798Z,1.00
2018-04-01T12:21:40.482Z,1.25
2018-04-01T12:24:08.094Z,1.27
2018-04-01T12:26:35.745Z,1.20
2018-04-01T12:29:03.347Z,1.02
2018-04-01T12:31:30.962Z,1.70
2018-04-01T12:33:58.523Z,1.30
2018-04-01T12:36:26.297Z,1.30
2018-04-01T12:38:53.870Z,1.52
2018-04-01T12:41:21.713Z,1.20
2018-04-01T12:43:49.511Z,1.23
2018-04-01T12:46:17.200Z,1.60
2018-04-01T12:48:45.755Z,2.17
2018-04-01T12:51:13.535Z,2.00
2018-04-01T12:53:41.903Z,1.77
2018-04-01T12:56:10.234Z,1.08
2018-04-01T12:58:38.555Z,1.73
2018-04-01T13:01:06.339Z,1.40
2018-04-01T13:03:34.026Z,1.10
2018-04-01T13:06:01.609Z,1.67
2018-04-01T13:08:29.203Z,1.60
2018-04-01T13:10:56.758Z,2.03
2018-04-01T13:13:25.115Z,1.87
2018-04-01T13:15:52.785Z,1.55
2018-04-01T13:18:20.491Z,2.25
2018-04-01T13:20:48.453Z,1.17
2018-04-01T13:23:16.145Z,1.62
2018-04-01T13:25:44.210Z,1.58
2018-04-01T13:28:11.846Z,1.80
2018-04-01T13:30:39.407Z,1.52
2018-04-01T13:33:07.343Z,1.80
2018-04-01T13:35:35.083Z,1.75
2018-04-01T13:38:02.668Z,1.58
2018-04-01T13:40:30.266Z,1.70
2018-04-01T13:42:57.825Z,1.65
2018-04-01T13:45:26.146Z,2.10
2018-04-01T13:47:53.738Z,2.00
2018-04-01T13:50:21.487Z,2.00
2018-04-01T13:52:49.324Z,1.85
2018-04-01T13:55:17.206Z,1.90
2018-04-01T13:57:45.199Z,2.00
2018-04-01T14:00:12.880Z,1.23
2018-04-01T14:02:40.467Z,1.52
2018-04-01T14:05:08.099Z,2.00
2018-04-01T14:07:35.874Z,2.30
2018-04-01T14:10:04.251Z,2.70
2018-04-01T14:12:31.844Z,3.67
2018-04-01T14:14:59.398Z,2.77
2018-04-01T14:17:27.715Z,3.28
2018-04-01T14:19:55.311Z,2.35
2018-04-01T14:22:22.899Z,3.20
2018-04-01T14:24:50.726Z,3.65
2018-04-01T14:27:18.569Z,4.00
2018-04-01T14:29:47.218Z,2.90
2018-04-01T14:32:14.922Z,3.65
2018-04-01T14:34:43.410Z,3.10
2018-04-01T14:37:11.803Z,3.65
2018-04-01T14:39:39.399Z,3.37
2018-04-01T14:42:07.058Z,3.65
2018-04-01T14:44:34.894Z,4.10
2018-04-01T14:47:02.631Z,3.78
2018-04-01T14:49:30.207Z,5.15
2018-04-01T14:51:57.761Z,4.25
2018-04-01T14:54:25.347Z,3.30
2018-04-01T14:56:52.938Z,5.50
2018-04-01T14:59:21.571Z,3.40
2018-04-01T15:01:50.179Z,5.93
2018-04-01T15:04:17.828Z,2.58
2018-04-01T15:06:46.226Z,4.25
2018-04-01T15:09:14.560Z,4.15
2018-04-01T15:11:42.274Z,4.65
2018-04-01T15:14:09.849Z,3.87
2018-04-01T15:16:37.434Z,3.35
2018-04-01T15:19:05.138Z,3.20
2018-04-01T15:21:32.694Z,3.47
2018-04-01T15:24:00.283Z,3.70
2018-04-01T15:26:27.878Z,3.87
2018-04-01T15:28:55.469Z,4.25
2018-04-01T15:31:23.060Z,3.97
2018-04-01T15:33:50.770Z,2.65
2018-04-01T15:36:19.228Z,3.72
2018-04-01T15:38:47.769Z,3.85
2018-04-01T15:41:15.523Z,3.95
2018-04-01T15:43:43.247Z,5.18
2018-04-01T15:46:11.123Z,2.92
2018-04-01T15:48:38.673Z,4.47
2018-04-01T15:51:07.103Z,3.97
2018-04-01T15:53:35.019Z,4.68
2018-04-01T15:56:02.582Z,4.68
2018-04-01T15:58:30.146Z,4.22
2018-04-01T16:00:57.750Z,4.35
2018-04-01T16:03:25.298Z,3.50
2018-04-01T16:05:52.922Z,3.87
2018-04-01T16:08:20.620Z,3.67
2018-04-01T16:10:48.370Z,4.43
2018-04-01T16:13:16.185Z,4.10
2018-04-01T16:15:44.800Z,2.50
2018-04-01T16:18:13.372Z,3.25
2018-04-01T16:20:42.527Z,3.08
2018-04-01T16:25:45.901Z,3.85
2018-04-01T16:28:13.528Z,3.78
2018-04-01T16:30:41.173Z,4.05
2018-04-01T16:33:08.756Z,4.50
2018-04-01T16:35:38.105Z,3.50
2018-04-01T16:38:06.057Z,4.00
2018-04-01T16:40:33.633Z,3.97
2018-04-01T16:43:01.260Z,4.03
2018-04-01T16:45:28.830Z,2.78
2018-04-01T16:47:56.417Z,4.68
2018-04-01T16:50:23.978Z,5.03
2018-04-01T16:52:51.695Z,3.58
2018-04-01T16:55:19.460Z,4.30
2018-04-01T16:57:47.443Z,3.00
2018-04-01T17:00:15.202Z,3.75
2018-04-01T17:02:42.938Z,5.15
2018-04-01T17:05:10.587Z,3.83
2018-04-01T17:07:38.218Z,3.60
2018-04-01T17:10:06.032Z,3.62
2018-04-01T17:12:33.638Z,3.55
2018-04-01T17:15:01.338Z,3.65
2018-04-01T17:17:28.937Z,3.05
2018-04-01T17:19:56.527Z,3.50
2018-04-01T17:22:24.110Z,3.37
2018-04-01T17:24:52.425Z,4.28
2018-04-01T17:27:20.117Z,4.32
2018-04-01T17:29:48.476Z,3.83
2018-04-01T17:32:16.155Z,3.33
2018-04-01T17:34:44.103Z,3.00
2018-04-01T17:37:12.514Z,3.80
2018-04-01T17:39:40.173Z,2.70
2018-04-01T17:42:08.527Z,2.90
2018-04-01T17:44:36.188Z,2.70
2018-04-01T17:47:03.937Z,3.00
2018-04-01T17:49:32.275Z,2.92
2018-04-01T17:51:59.830Z,2.75
2018-04-01T17:54:28.187Z,2.60
2018-04-01T17:56:55.951Z,2.65
2018-04-01T17:59:23.506Z,2.85
2018-04-01T18:01:52.011Z,3.00
2018-04-01T18:04:20.414Z,3.30
2018-04-01T18:06:48.533Z,2.65
2018-04-01T18:09:16.629Z,2.62
2018-04-01T18:11:44.623Z,2.90
2018-04-01T18:14:12.556Z,3.05
2018-04-01T18:16:40.154Z,2.90
2018-04-01T18:19:07.989Z,2.50
2018-04-01T18:21:35.777Z,2.78
2018-04-01T18:24:03.566Z,3.20
2018-04-01T18:26:31.271Z,3.42
2018-04-01T18:28:58.885Z,3.45
2018-04-01T18:31:26.461Z,2.40
2018-04-01T18:33:54.049Z,3.20
2018-04-01T18:36:21.891Z,2.33
2018-04-01T18:38:50.724Z,2.90
2018-04-01T18:41:18.612Z,3.00
2018-04-01T18:43:47.308Z,3.05
2018-04-01T18:46:15.112Z,3.03
2018-04-01T18:48:43.958Z,2.72
2018-04-01T18:51:11.554Z,2.95
2018-04-01T18:53:39.159Z,3.63
2018-04-01T18:56:07.563Z,3.70
2018-04-01T18:58:35.493Z,3.30
2018-04-01T19:01:03.095Z,3.12
2018-04-01T19:03:30.708Z,3.40
2018-04-01T19:05:58.303Z,3.05
2018-04-01T19:08:25.859Z,3.25
2018-04-01T19:10:53.415Z,3.12
2018-04-01T19:13:21.104Z,3.65
2018-04-01T19:15:48.894Z,3.50
2018-04-01T19:18:17.228Z,2.60
2018-04-01T19:20:47.648Z,2.75
2018-04-01T19:23:16.925Z,4.18
2018-04-01T19:25:46.829Z,4.37
2018-04-01T19:28:15.573Z,3.87
2018-04-01T19:30:44.239Z,3.58
2018-04-01T19:33:13.078Z,4.78
2018-04-01T19:35:41.813Z,4.50
2018-04-01T19:38:10.159Z,4.32
2018-04-01T19:40:38.769Z,4.57
2018-04-01T19:43:07.194Z,4.95
2018-04-01T19:45:36.271Z,4.43
2018-04-01T19:48:04.695Z,4.32
2018-04-01T19:50:33.027Z,3.53
2018-04-01T19:53:01.339Z,5.70
2018-04-01T19:55:29.618Z,3.40
2018-04-01T19:57:57.938Z,5.67
2018-04-01T20:00:26.527Z,4.90
2018-04-01T20:02:54.805Z,5.72
2018-04-01T20:05:23.089Z,6.00
2018-04-01T20:07:51.402Z,6.32
2018-04-01T20:10:19.698Z,5.72
2018-04-01T20:12:48.035Z,7.22
2018-04-01T20:15:17.254Z,4.80
2018-04-01T20:17:45.966Z,6.75
2018-04-01T20:20:14.361Z,6.68
2018-04-01T20:22:43.062Z,6.77
2018-04-01T20:25:11.394Z,6.50
2018-04-01T20:27:39.679Z,8.23
2018-04-01T20:30:08.041Z,8.25
2018-04-01T20:32:36.386Z,8.02
2018-04-01T20:35:04.734Z,7.55
2018-04-01T20:37:33.790Z,7.95
2018-04-01T20:40:02.113Z,7.35
2018-04-01T20:42:30.930Z,7.93
2018-04-01T20:44:59.287Z,7.30
2018-04-01T20:47:28.338Z,6.67
2018-04-01T20:49:56.679Z,6.40
2018-04-01T20:52:24.998Z,7.62
2018-04-01T20:54:54.095Z,8.73
2018-04-01T20:57:22.397Z,9.20
2018-04-01T20:59:50.718Z,8.53
2018-04-01T21:02:19.867Z,8.90
2018-04-01T21:04:48.415Z,9.13
2018-04-01T21:07:16.823Z,9.45
2018-04-01T21:09:45.289Z,7.57
2018-04-01T21:12:13.637Z,8.40
2018-04-01T21:14:43.054Z,9.15
2018-04-01T21:17:11.381Z,10.93
2018-04-01T21:19:39.702Z,10.95
2018-04-01T21:22:08.797Z,9.80
2018-04-01T21:24:37.166Z,9.23
2018-04-01T21:27:05.597Z,7.62
2018-04-01T21:29:33.990Z,7.63
2018-04-01T21:32:02.295Z,9.35
2018-04-01T21:34:32.150Z,9.37
2018-04-01T21:37:00.463Z,9.95
2018-04-01T21:39:29.558Z,10.27
2018-04-01T21:41:57.882Z,11.40
2018-04-01T21:44:26.175Z,12.07
2018-04-01T21:46:54.510Z,11.45
2018-04-01T21:49:24.222Z,11.77
2018-04-01T21:51:52.575Z,11.40
2018-04-01T21:54:20.959Z,9.65
2018-04-01T21:56:49.368Z,10.82
2018-04-01T21:59:17.885Z,10.63
2018-04-01T22:01:46.380Z,11.32
2018-04-01T22:04:14.999Z,10.00
2018-04-01T22:06:43.516Z,11.45
2018-04-01T22:09:11.875Z,11.98
2018-04-01T22:11:40.288Z,8.93
2018-04-01T22:14:09.382Z,12.00
2018-04-01T22:16:37.766Z,11.17
2018-04-01T22:19:06.546Z,12.18
2018-04-01T22:21:34.886Z,11.10
2018-04-01T22:24:03.182Z,11.77
2018-04-01T22:26:31.507Z,10.60
2018-04-01T22:28:59.806Z,11.00
2018-04-01T22:31:28.119Z,9.90
2018-04-01T22:33:57.221Z,12.60
2018-04-01T22:36:26.563Z,10.82
2018-04-01T22:38:54.889Z,12.35
2018-04-01T22:41:23.331Z,11.27
2018-04-01T22:43:51.654Z,11.65
2018-04-01T22:46:19.995Z,10.80
2018-04-01T22:48:49.123Z,13.03
2018-04-01T22:51:17.435Z,11.55
2018-04-01T22:53:46.214Z,11.50
2018-04-01T22:56:14.660Z,11.20
2018-04-01T22:58:43.086Z,9.73
2018-04-01T23:01:12.259Z,10.25
2018-04-01T23:03:40.630Z,8.70
2018-04-01T23:06:09.246Z,7.73
2018-04-01T23:08:39.037Z,8.57
2018-04-01T23:11:07.336Z,10.10
2018-04-01T23:13:35.970Z,10.95
2018-04-01T23:16:04.675Z,8.95
2018-04-01T23:18:33.146Z,8.75
2018-04-01T23:21:01.519Z,10.40
2018-04-01T23:23:29.819Z,10.53
2018-04-01T23:25:58.207Z,9.43
2018-04-01T23:28:26.560Z,8.23
2018-04-01T23:30:55.622Z,7.60
2018-04-01T23:33:23.912Z,8.65
2018-04-01T23:35:52.775Z,8.25
2018-04-01T23:38:22.063Z,8.10
2018-04-01T23:40:50.485Z,8.65
2018-04-01T23:43:18.868Z,8.77
2018-04-01T23:45:47.675Z,8.67
2018-04-01T23:48:16.498Z,8.50
2018-04-01T23:50:45.602Z,9.55
2018-04-01T23:53:14.635Z,9.30
2018-04-01T23:55:43.757Z,8.55
2018-04-01T23:58:12.092Z,8.67
